createdAt,value
2018-06-02T00:00:13.968Z,101189.45
2018-06-02T00:02:42.316Z,101189.73
2018-06-02T00:05:10.697Z,101184.89
2018-06-02T00:07:39.283Z,101180.51
2018-06-02T00:10:07.602Z,101184.80
2018-06-02T00:12:35.949Z,101176.98
2018-06-02T00:15:04.515Z,101181.17
2018-06-02T00:17:33.024Z,101182.89
2018-06-02T00:20:01.575Z,101187.47
2018-06-02T00:22:30.980Z,101186.45
2018-06-02T00:24:59.295Z,101184.22
2018-06-02T00:27:27.670Z,101180.50
2018-06-02T00:29:56.032Z,101177.61
2018-06-02T00:32:24.367Z,101181.48
2018-06-02T00:34:52.795Z,101177.56
2018-06-02T00:37:21.282Z,101181.42
2018-06-02T00:39:49.590Z,101180.57
2018-06-02T00:42:18.111Z,101178.87
2018-06-02T00:44:48.108Z,101173.75
2018-06-02T00:47:16.528Z,101172.25
2018-06-02T00:49:44.895Z,101174.66
2018-06-02T00:52:13.968Z,101169.56
2018-06-02T00:54:59.848Z,101162.47
2018-06-02T00:57:28.182Z,101163.83
2018-06-02T00:59:56.533Z,101163.34
2018-06-02T01:02:25.408Z,101164.61
2018-06-02T01:04:54.521Z,101160.09
2018-06-02T01:07:22.890Z,101159.94
2018-06-02T01:09:52.019Z,101156.77
2018-06-02T01:12:20.330Z,101157.56
2018-06-02T01:14:48.636Z,101160.03
2018-06-02T01:17:16.989Z,101161.47
2018-06-02T01:19:45.336Z,101163.03
2018-06-02T01:22:13.673Z,101169.84
2018-06-02T01:24:42.119Z,101162.77
2018-06-02T01:27:10.436Z,101166.42
2018-06-02T01:29:38.797Z,101177.58
2018-06-02T01:32:07.185Z,101174.45
2018-06-02T01:34:35.493Z,101170.13
2018-06-02T01:37:03.808Z,101173.14
2018-06-02T01:39:32.162Z,101176.27
2018-06-02T01:42:00.496Z,101176.62
2018-06-02T01:44:28.843Z,101178.36
2018-06-02T01:46:57.657Z,101170.66
2018-06-02T01:49:25.984Z,101173.97
2018-06-02T01:51:54.292Z,101170.39
2018-06-02T01:54:22.662Z,101171.98
2018-06-02T01:56:51.005Z,101171.75
2018-06-02T01:59:20.103Z,101174.83
2018-06-02T02:01:49.204Z,101165.66
2018-06-02T02:04:17.551Z,101170.36
2018-06-02T02:06:45.860Z,101167.94
2018-06-02T02:09:15.445Z,101170.34
2018-06-02T02:11:43.803Z,101172.77
2018-06-02T02:14:12.147Z,101177.00
2018-06-02T02:16:40.499Z,101169.23
2018-06-02T02:19:08.835Z,101172.98
2018-06-02T02:21:37.175Z,101173.31
2018-06-02T02:24:05.515Z,101174.78
2018-06-02T02:26:34.605Z,101166.64
2018-06-02T02:29:02.971Z,101175.67
2018-06-02T02:31:31.787Z,101175.61
2018-06-02T02:34:00.903Z,101188.23
2018-06-02T02:36:29.218Z,101190.28
2018-06-02T02:38:57.586Z,101178.80
2018-06-02T02:41:25.891Z,101182.67
2018-06-02T02:43:54.286Z,101173.59
2018-06-02T02:46:22.670Z,101178.41
2018-06-02T02:48:51.757Z,101183.45
2018-06-02T02:51:20.084Z,101190.54
2018-06-02T02:53:49.151Z,101191.24
2018-06-02T02:56:17.485Z,101193.88
2018-06-02T02:58:46.202Z,101188.36
2018-06-02T03:01:15.339Z,101189.30
2018-06-02T03:03:43.672Z,101192.34
2018-06-02T03:06:11.975Z,101200.41
2018-06-02T03:08:40.315Z,101206.70
2018-06-02T03:11:08.639Z,101210.77
2018-06-02T03:13:36.977Z,101208.96
2018-06-02T03:16:05.882Z,101216.91
2018-06-02T03:18:34.211Z,101218.68
2018-06-02T03:21:02.559Z,101213.95
2018-06-02T03:23:30.936Z,101217.19
2018-06-02T03:25:59.291Z,101221.70
2018-06-02T03:28:27.626Z,101225.80
2018-06-02T03:30:55.980Z,101221.28
2018-06-02T03:33:24.322Z,101222.12
2018-06-02T03:35:52.665Z,101219.97
2018-06-02T03:38:21.281Z,101229.52
2018-06-02T03:40:49.634Z,101222.47
2018-06-02T03:43:17.952Z,101230.75
2018-06-02T03:45:46.330Z,101222.73
2018-06-02T03:48:15.431Z,101229.48
2018-06-02T03:50:44.524Z,101239.61
2018-06-02T03:53:12.945Z,101246.22
2018-06-02T03:55:41.277Z,101247.70
2018-06-02T03:58:09.632Z,101253.09
2018-06-02T04:00:38.535Z,101253.66
2018-06-02T04:03:06.896Z,101251.72
2018-06-02T04:05:35.988Z,101257.77
2018-06-02T04:08:04.337Z,101267.71
2018-06-02T04:10:32.696Z,101266.52
2018-06-02T04:13:01.027Z,101261.56
2018-06-02T04:15:30.155Z,101262.30
2018-06-02T04:17:58.503Z,101264.11
2018-06-02T04:20:26.909Z,101260.35
2018-06-02T04:22:55.643Z,101265.48
2018-06-02T04:25:24.023Z,101270.47
2018-06-02T04:27:52.351Z,101271.22
2018-06-02T04:30:20.677Z,101274.63
2018-06-02T04:32:49.004Z,101272.83
2018-06-02T04:35:17.330Z,101269.12
2018-06-02T04:37:46.442Z,101274.06
2018-06-02T04:40:14.786Z,101272.97
2018-06-02T04:42:43.125Z,101271.88
2018-06-02T04:45:11.579Z,101276.75
2018-06-02T04:47:39.916Z,101278.76
2018-06-02T04:50:08.237Z,101284.59
2018-06-02T04:52:36.585Z,101281.44
2018-06-02T04:55:05.711Z,101273.09
2018-06-02T04:57:34.046Z,101280.80
2018-06-02T05:00:03.180Z,101283.40
2018-06-02T05:02:31.896Z,101286.06
2018-06-02T05:05:00.999Z,101290.00
2018-06-02T05:07:30.630Z,101281.98
2018-06-02T05:09:59.007Z,101288.77
2018-06-02T05:12:27.332Z,101291.66
2018-06-02T05:14:55.704Z,101285.48
2018-06-02T05:17:24.032Z,101289.14
2018-06-02T05:19:52.352Z,101292.06
2018-06-02T05:22:20.756Z,101290.83
2018-06-02T05:24:49.091Z,101300.33
2018-06-02T05:27:18.182Z,101298.95
2018-06-02T05:29:47.411Z,101308.28
2018-06-02T05:32:15.768Z,101300.84
2018-06-02T05:34:44.880Z,101306.81
2018-06-02T05:37:13.287Z,101301.72
2018-06-02T05:39:41.613Z,101300.77
2018-06-02T05:42:10.748Z,101301.02
2018-06-02T05:44:39.147Z,101306.33
2018-06-02T05:47:07.535Z,101298.69
2018-06-02T05:49:35.895Z,101312.28
2018-06-02T05:52:04.389Z,101315.59
2018-06-02T05:54:32.780Z,101310.34
2018-06-02T05:57:01.101Z,101305.62
2018-06-02T05:59:30.244Z,101302.37
2018-06-02T06:01:58.586Z,101300.81
2018-06-02T06:04:26.924Z,101302.82
2018-06-02T06:06:55.268Z,101297.17
2018-06-02T06:09:23.592Z,101299.70
2018-06-02T06:11:51.913Z,101306.21
2018-06-02T06:14:20.360Z,101302.45
2018-06-02T06:16:49.486Z,101305.57
2018-06-02T06:19:18.594Z,101310.39
2018-06-02T06:21:46.958Z,101307.42
2018-06-02T06:24:15.311Z,101311.50
2018-06-02T06:26:44.407Z,101312.53
2018-06-02T06:29:13.526Z,101320.94
2018-06-02T06:31:42.636Z,101318.06
2018-06-02T06:34:11.032Z,101319.09
2018-06-02T06:36:39.555Z,101318.28
2018-06-02T06:39:07.902Z,101325.77
2018-06-02T06:41:36.211Z,101324.28
2018-06-02T06:44:04.580Z,101325.05
2018-06-02T06:46:33.756Z,101324.97
2018-06-02T06:49:02.068Z,101328.68
2018-06-02T06:51:30.450Z,101339.75
2018-06-02T06:53:59.548Z,101335.16
2018-06-02T06:56:28.672Z,101335.40
2018-06-02T06:58:57.430Z,101336.52
2018-06-02T07:01:25.794Z,101346.41
2018-06-02T07:03:54.154Z,101346.94
2018-06-02T07:06:22.525Z,101341.73
2018-06-02T07:08:50.881Z,101350.61
2018-06-02T07:11:19.171Z,101350.08
2018-06-02T07:13:47.569Z,101359.08
2018-06-02T07:16:15.949Z,101351.25
2018-06-02T07:18:44.308Z,101341.41
2018-06-02T07:21:12.951Z,101350.42
2018-06-02T07:23:41.297Z,101342.30
2018-06-02T07:26:09.659Z,101346.94
2018-06-02T07:28:38.067Z,101346.48
2018-06-02T07:31:06.382Z,101347.05
2018-06-02T07:33:35.486Z,101349.42
2018-06-02T07:36:03.861Z,101352.59
2018-06-02T07:38:32.212Z,101354.94
2018-06-02T07:41:00.520Z,101356.22
2018-06-02T07:43:29.311Z,101347.81
2018-06-02T07:45:57.643Z,101352.63
2018-06-02T07:48:25.987Z,101359.00
2018-06-02T07:50:54.365Z,101352.97
2018-06-02T07:53:22.723Z,101360.45
2018-06-02T07:55:51.127Z,101358.38
2018-06-02T07:58:19.505Z,101350.50
2018-06-02T08:00:47.836Z,101355.98
2018-06-02T08:03:16.196Z,101356.82
2018-06-02T08:05:44.830Z,101357.77
2018-06-02T08:08:13.159Z,101357.92
2018-06-02T08:10:41.510Z,101354.41
2018-06-02T08:13:10.608Z,101351.79
2018-06-02T08:15:38.968Z,101353.13
2018-06-02T08:18:07.311Z,101352.45
2018-06-02T08:20:35.747Z,101362.29
2018-06-02T08:23:04.101Z,101359.59
2018-06-02T08:25:32.431Z,101360.41
2018-06-02T08:28:00.981Z,101364.28
2018-06-02T08:30:29.292Z,101354.25
2018-06-02T08:32:57.654Z,101358.81
2018-06-02T08:35:26.021Z,101360.02
2018-06-02T08:37:54.356Z,101363.32
2018-06-02T08:40:23.423Z,101364.49
2018-06-02T08:42:51.764Z,101365.44
2018-06-02T08:45:20.093Z,101369.78
2018-06-02T08:47:48.424Z,101361.19
2018-06-02T08:50:17.077Z,101365.73
2018-06-02T08:52:45.405Z,101367.60
2018-06-02T08:55:13.755Z,101369.70
2018-06-02T08:57:42.141Z,101369.11
2018-06-02T09:00:10.480Z,101375.69
2018-06-02T09:02:39.599Z,101371.31
2018-06-02T09:05:07.990Z,101374.27
2018-06-02T09:07:36.339Z,101382.83
2018-06-02T09:10:05.465Z,101382.67
2018-06-02T09:12:34.218Z,101382.92
2018-06-02T09:15:02.627Z,101381.18
2018-06-02T09:17:30.996Z,101386.21
2018-06-02T09:19:59.359Z,101387.81
2018-06-02T09:22:28.492Z,101390.55
2018-06-02T09:24:56.827Z,101390.66
2018-06-02T09:27:25.941Z,101402.63
2018-06-02T09:29:55.025Z,101401.97
2018-06-02T09:32:24.118Z,101410.66
2018-06-02T09:34:53.008Z,101409.33
2018-06-02T09:37:21.367Z,101404.36
2018-06-02T09:39:49.792Z,101405.52
2018-06-02T09:42:18.187Z,101412.45
2018-06-02T09:44:46.577Z,101412.99
2018-06-02T09:47:14.888Z,101406.90
2018-06-02T09:49:43.274Z,101410.46
2018-06-02T09:52:11.604Z,101400.28
2018-06-02T09:54:39.953Z,101402.26
2018-06-02T09:57:09.192Z,101401.42
2018-06-02T09:59:37.526Z,101401.83
2018-06-02T10:02:06.633Z,101402.84
2018-06-02T10:04:35.828Z,101407.64
2018-06-02T10:07:04.137Z,101406.87
2018-06-02T10:09:32.476Z,101404.80
2018-06-02T10:12:01.628Z,101411.92
2018-06-02T10:14:30.000Z,101409.80
2018-06-02T10:16:58.339Z,101402.99
2018-06-02T10:19:27.837Z,101406.91
2018-06-02T10:21:56.927Z,101415.83
2018-06-02T10:24:25.260Z,101407.54
2018-06-02T10:26:53.612Z,101420.83
2018-06-02T10:29:22.010Z,101412.13
2018-06-02T10:31:50.414Z,101426.63
2018-06-02T10:34:18.753Z,101418.75
2018-06-02T10:36:47.104Z,101427.45
2018-06-02T10:39:15.491Z,101425.88
2018-06-02T10:41:44.827Z,101421.13
2018-06-02T10:44:13.162Z,101423.98
2018-06-02T10:46:41.473Z,101426.56
2018-06-02T10:49:09.831Z,101424.78
2018-06-02T10:51:38.960Z,101439.38
2018-06-02T10:54:07.339Z,101432.02
2018-06-02T10:56:35.715Z,101448.02
2018-06-02T10:59:04.036Z,101446.00
2018-06-02T11:01:32.357Z,101453.56
2018-06-02T11:04:01.031Z,101447.89
2018-06-02T11:06:29.351Z,101450.91
2018-06-02T11:08:57.688Z,101454.14
2018-06-02T11:11:26.843Z,101456.23
2018-06-02T11:13:55.176Z,101462.20
2018-06-02T11:16:23.510Z,101451.03
2018-06-02T11:18:51.880Z,101451.83
2018-06-02T11:21:20.265Z,101453.89
2018-06-02T11:23:48.748Z,101449.66
2018-06-02T11:26:17.178Z,101452.69
2018-06-02T11:28:45.519Z,101455.20
2018-06-02T11:31:14.639Z,101450.44
2018-06-02T11:33:43.804Z,101446.91
2018-06-02T11:36:12.213Z,101450.45
2018-06-02T11:38:41.314Z,101451.35
2018-06-02T11:41:09.713Z,101452.27
2018-06-02T11:43:38.059Z,101449.41
2018-06-02T11:46:07.134Z,101454.78
2018-06-02T11:48:35.769Z,101457.56
2018-06-02T11:51:04.117Z,101458.77
2018-06-02T11:53:33.220Z,101453.44
2018-06-02T11:56:02.367Z,101454.83
2018-06-02T11:58:30.707Z,101462.37
2018-06-02T12:00:59.045Z,101457.56
2018-06-02T12:03:27.397Z,101470.33
2018-06-02T12:05:55.747Z,101465.06
2018-06-02T12:08:24.128Z,101473.78
2018-06-02T12:10:52.853Z,101467.98
2018-06-02T12:13:21.223Z,101468.17
2018-06-02T12:15:49.550Z,101466.19
2018-06-02T12:18:18.695Z,101464.52
2018-06-02T12:20:47.226Z,101464.20
2018-06-02T12:23:15.687Z,101466.77
2018-06-02T12:25:44.056Z,101465.41
2018-06-02T12:28:12.443Z,101468.18
2018-06-02T12:30:40.820Z,101457.75
2018-06-02T12:33:09.301Z,101462.07
2018-06-02T12:35:37.655Z,101463.10
2018-06-02T12:38:06.018Z,101461.24
2018-06-02T12:40:34.492Z,101457.06
2018-06-02T12:43:02.904Z,101457.20
2018-06-02T12:45:31.230Z,101462.83
2018-06-02T12:47:59.576Z,101457.27
2018-06-02T12:50:27.918Z,101460.20
2018-06-02T12:52:56.233Z,101462.27
2018-06-02T12:55:24.916Z,101453.44
2018-06-02T12:57:53.301Z,101452.95
2018-06-02T13:00:21.766Z,101460.13
2018-06-02T13:02:50.112Z,101462.13
2018-06-02T13:05:18.480Z,101470.28
2018-06-02T13:07:46.795Z,101463.98
2018-06-02T13:10:15.152Z,101469.36
2018-06-02T13:12:43.512Z,101467.48
2018-06-02T13:15:17.950Z,101470.67
2018-06-02T13:17:46.300Z,101467.72
2018-06-02T13:20:15.383Z,101470.19
2018-06-02T13:22:43.741Z,101472.43
2018-06-02T13:25:12.108Z,101462.09
2018-06-02T13:27:40.426Z,101460.89
2018-06-02T13:30:08.801Z,101458.96
2018-06-02T13:32:37.151Z,101462.48
2018-06-02T13:35:05.500Z,101462.94
2018-06-02T13:37:34.126Z,101458.94
2018-06-02T13:40:03.265Z,101459.16
2018-06-02T13:42:32.355Z,101457.87
2018-06-02T13:45:01.503Z,101452.50
2018-06-02T13:47:29.850Z,101454.22
2018-06-02T13:49:58.180Z,101466.63
2018-06-02T13:52:26.559Z,101465.66
2018-06-02T13:54:54.889Z,101461.57
2018-06-02T13:57:23.223Z,101466.67
2018-06-02T13:59:51.740Z,101464.88
2018-06-02T14:02:20.838Z,101463.67
2018-06-02T14:04:49.435Z,101462.06
2018-06-02T14:07:17.777Z,101460.84
2018-06-02T14:09:46.114Z,101465.11
2018-06-02T14:12:14.457Z,101465.31
2018-06-02T14:14:42.816Z,101464.42
2018-06-02T14:17:11.955Z,101469.75
2018-06-02T14:19:40.287Z,101463.34
2018-06-02T14:22:08.847Z,101467.20
2018-06-02T14:24:37.177Z,101469.22
2018-06-02T14:27:06.285Z,101469.66
2018-06-02T14:29:34.654Z,101468.64
2018-06-02T14:32:03.027Z,101465.03
2018-06-02T14:34:32.112Z,101469.73
2018-06-02T14:37:01.233Z,101465.31
2018-06-02T14:39:29.563Z,101473.31
2018-06-02T14:41:57.883Z,101472.59
2018-06-02T14:44:26.304Z,101472.03
2018-06-02T14:46:54.664Z,101473.98
2018-06-02T14:49:23.081Z,101462.92
2018-06-02T14:51:51.388Z,101459.91
2018-06-02T14:54:20.594Z,101460.27
2018-06-02T14:56:48.925Z,101455.56
2018-06-02T14:59:17.287Z,101452.98
2018-06-02T15:01:45.613Z,101450.14
2018-06-02T15:04:14.718Z,101452.14
2018-06-02T15:06:44.076Z,101457.14
2018-06-02T15:09:12.423Z,101452.08
2018-06-02T15:11:40.779Z,101452.74
2018-06-02T15:14:09.908Z,101457.25
2018-06-02T15:16:38.225Z,101461.05
2018-06-02T15:19:06.561Z,101460.92
2018-06-02T15:21:34.922Z,101464.59
2018-06-02T15:24:04.026Z,101471.09
2018-06-02T15:26:32.371Z,101469.86
2018-06-02T15:29:01.040Z,101476.41
2018-06-02T15:31:29.394Z,101468.92
2018-06-02T15:33:57.744Z,101467.79
2018-06-02T15:36:26.118Z,101465.75
2018-06-02T15:38:54.459Z,101461.66
2018-06-02T15:41:22.807Z,101463.51
2018-06-02T15:43:51.163Z,101462.06
2018-06-02T15:46:19.491Z,101460.28
2018-06-02T15:48:47.804Z,101460.81
2018-06-02T15:51:17.020Z,101463.89
2018-06-02T15:53:45.348Z,101472.36
2018-06-02T15:56:13.657Z,101468.92
2018-06-02T15:58:42.809Z,101469.17
2018-06-02T16:01:11.165Z,101469.67
2018-06-02T16:03:39.511Z,101467.61
2018-06-02T16:06:08.661Z,101468.22
2018-06-02T16:08:37.015Z,101466.42
2018-06-02T16:11:05.436Z,101468.66
2018-06-02T16:13:34.173Z,101470.23
2018-06-02T16:16:02.497Z,101471.02
2018-06-02T16:18:30.846Z,101469.77
2018-06-02T16:20:59.231Z,101476.95
2018-06-02T16:23:27.573Z,101476.63
2018-06-02T16:25:56.696Z,101474.00
2018-06-02T16:28:25.081Z,101477.98
2018-06-02T16:30:53.429Z,101471.95
2018-06-02T16:33:22.506Z,101468.41
2018-06-02T16:35:51.812Z,101472.30
2018-06-02T16:38:20.927Z,101473.03
2018-06-02T16:40:50.048Z,101470.05
2018-06-02T16:43:18.404Z,101471.46
2018-06-02T16:45:46.754Z,101473.30
2018-06-02T16:48:15.159Z,101475.53
2018-06-02T16:50:43.515Z,101469.61
2018-06-02T16:53:12.643Z,101482.49
2018-06-02T16:55:40.949Z,101484.77
2018-06-02T16:58:09.753Z,101483.20
2018-06-02T17:00:38.146Z,101485.31
2018-06-02T17:03:06.480Z,101484.87
2018-06-02T17:05:34.840Z,101495.67
2018-06-02T17:08:03.180Z,101490.98
2018-06-02T17:10:31.535Z,101493.47
2018-06-02T17:12:59.945Z,101498.89
2018-06-02T17:15:28.319Z,101495.50
2018-06-02T17:17:56.806Z,101495.76
2018-06-02T17:20:25.276Z,101493.83
2018-06-02T17:22:53.667Z,101493.83
2018-06-02T17:25:22.080Z,101498.03
2018-06-02T17:27:50.491Z,101493.27
2018-06-02T17:30:18.917Z,101489.43
2018-06-02T17:32:47.300Z,101488.47
2018-06-02T17:35:16.454Z,101490.66
2018-06-02T17:37:44.951Z,101487.94
2018-06-02T17:40:13.329Z,101492.39
2018-06-02T17:42:41.844Z,101493.19
2018-06-02T17:45:11.112Z,101498.88
2018-06-02T17:47:39.545Z,101494.50
2018-06-02T17:50:07.994Z,101501.91
2018-06-02T17:52:36.313Z,101500.10
2018-06-02T17:55:04.748Z,101489.55
2018-06-02T17:57:33.220Z,101490.81
2018-06-02T18:00:01.723Z,101491.42
2018-06-02T18:02:30.969Z,101497.58
2018-06-02T18:04:59.567Z,101501.53
2018-06-02T18:07:27.973Z,101494.70
2018-06-02T18:09:56.467Z,101493.96
2018-06-02T18:12:25.764Z,101497.08
2018-06-02T18:14:54.135Z,101494.69
2018-06-02T18:17:22.487Z,101498.80
2018-06-02T18:19:50.837Z,101501.48
2018-06-02T18:22:19.353Z,101507.95
2018-06-02T18:24:47.779Z,101505.56
2018-06-02T18:27:16.742Z,101507.33
2018-06-02T18:29:45.134Z,101519.62
2018-06-02T18:32:13.612Z,101513.52
2018-06-02T18:34:41.955Z,101518.31
2018-06-02T18:37:10.492Z,101515.31
2018-06-02T18:39:39.671Z,101520.61
2018-06-02T18:42:08.080Z,101523.84
2018-06-02T18:44:37.260Z,101524.58
2018-06-02T18:47:05.753Z,101527.49
2018-06-02T18:49:35.017Z,101533.68
2018-06-02T18:52:03.436Z,101533.56
2018-06-02T18:54:31.806Z,101533.60
2018-06-02T18:57:01.063Z,101532.14
2018-06-02T18:59:29.478Z,101529.34
2018-06-02T19:01:57.878Z,101538.36
2018-06-02T19:04:27.016Z,101538.83
2018-06-02T19:06:55.377Z,101532.37
2018-06-02T19:09:23.723Z,101534.68
2018-06-02T19:11:53.331Z,101537.71
2018-06-02T19:14:22.451Z,101540.12
2018-06-02T19:16:50.802Z,101543.22
2018-06-02T19:19:19.207Z,101536.85
2018-06-02T19:21:47.540Z,101536.97
2018-06-02T19:24:15.954Z,101537.73
2018-06-02T19:26:45.065Z,101534.40
2018-06-02T19:29:13.402Z,101538.85
2018-06-02T19:31:41.749Z,101532.03
2018-06-02T19:34:10.363Z,101534.18
2018-06-02T19:36:38.710Z,101529.95
2018-06-02T19:39:07.053Z,101542.27
2018-06-02T19:41:36.195Z,101539.83
2018-06-02T19:44:04.529Z,101537.47
2018-06-02T19:46:32.872Z,101542.18
2018-06-02T19:49:01.245Z,101548.77
2018-06-02T19:51:29.606Z,101545.61
2018-06-02T19:53:57.946Z,101546.55
2018-06-02T19:56:27.134Z,101544.64
2018-06-02T19:58:55.488Z,101538.09
2018-06-02T20:01:23.865Z,101545.45
2018-06-02T20:03:52.273Z,101539.73
2018-06-02T20:06:56.871Z,101543.57
2018-06-02T20:09:26.380Z,101537.64
2018-06-02T20:11:55.711Z,101541.66
2018-06-02T20:14:25.035Z,101542.27
2018-06-02T20:16:54.461Z,101548.38
2018-06-02T20:19:23.816Z,101553.45
2018-06-02T20:21:53.112Z,101551.22
2018-06-02T20:24:22.455Z,101549.23
2018-06-02T20:26:51.782Z,101547.00
2018-06-02T20:29:21.301Z,101554.61
2018-06-02T20:31:50.809Z,101552.70
2018-06-02T20:34:20.117Z,101555.55
2018-06-02T20:36:49.467Z,101560.18
2018-06-02T20:39:19.039Z,101558.62
2018-06-02T20:41:48.370Z,101559.06
2018-06-02T20:44:17.738Z,101559.69
2018-06-02T20:46:47.126Z,101564.58
2018-06-02T20:49:16.528Z,101559.24
2018-06-02T20:51:45.876Z,101566.91
2018-06-02T20:54:15.263Z,101562.63
2018-06-02T20:56:44.760Z,101564.98
2018-06-02T20:59:14.130Z,101562.89
2018-06-02T21:01:43.746Z,101566.50
2018-06-02T21:04:13.301Z,101562.76
2018-06-02T21:06:42.597Z,101562.54
2018-06-02T21:09:12.049Z,101566.01
2018-06-02T21:11:41.530Z,101564.19
2018-06-02T21:14:10.961Z,101566.15
2018-06-02T21:16:40.362Z,101568.91
2018-06-02T21:19:09.804Z,101571.84
2018-06-02T21:21:39.430Z,101570.99
2018-06-02T21:24:08.928Z,101581.55
2018-06-02T21:26:38.393Z,101571.53
2018-06-02T21:29:07.844Z,101578.21
2018-06-02T21:31:37.185Z,101577.55
2018-06-02T21:34:06.669Z,101573.66
2018-06-02T21:36:36.022Z,101582.66
2018-06-02T21:39:06.861Z,101576.78
2018-06-02T21:41:36.228Z,101575.09
2018-06-02T21:44:05.559Z,101574.91
2018-06-02T21:46:35.177Z,101576.61
2018-06-02T21:49:04.474Z,101582.27
2018-06-02T21:51:33.772Z,101577.72
2018-06-02T21:54:03.095Z,101582.34
2018-06-02T21:56:32.146Z,101578.39
2018-06-02T21:59:01.442Z,101581.59
2018-06-02T22:01:30.777Z,101581.95
2018-06-02T22:04:00.206Z,101578.08
2018-06-02T22:06:29.515Z,101581.73
2018-06-02T22:08:59.424Z,101581.33
2018-06-02T22:11:28.822Z,101584.09
2018-06-02T22:13:58.219Z,101579.37
2018-06-02T22:16:27.604Z,101585.25
2018-06-02T22:18:56.957Z,101590.19
2018-06-02T22:21:26.364Z,101588.23
2018-06-02T22:23:55.723Z,101590.69
2018-06-02T22:26:25.072Z,101591.97
2018-06-02T22:28:54.400Z,101591.48
2018-06-02T22:31:23.944Z,101583.73
2018-06-02T22:33:53.301Z,101588.81
2018-06-02T22:36:22.598Z,101593.48
2018-06-02T22:38:51.936Z,101577.68
2018-06-02T22:41:21.296Z,101576.70
2018-06-02T22:43:50.607Z,101575.09
2018-06-02T22:46:20.231Z,101580.27
2018-06-02T22:48:49.572Z,101571.80
2018-06-02T22:51:33.557Z,101573.06
2018-06-02T22:54:02.992Z,101567.06
2018-06-02T22:56:32.076Z,101577.00
2018-06-02T22:59:01.476Z,101578.66
2018-06-02T23:01:30.883Z,101575.89
2018-06-02T23:04:00.328Z,101575.31
2018-06-02T23:06:29.690Z,101579.01
2018-06-02T23:08:59.059Z,101577.44
2018-06-02T23:11:28.374Z,101573.34
2018-06-02T23:13:58.036Z,101581.27
2018-06-02T23:16:27.315Z,101575.75
2018-06-02T23:18:56.605Z,101584.66
2018-06-02T23:21:25.968Z,101586.47
2018-06-02T23:23:55.269Z,101584.34
2018-06-02T23:26:24.590Z,101593.49
2018-06-02T23:28:53.908Z,101591.39
2018-06-02T23:31:23.171Z,101589.26
2018-06-02T23:33:52.483Z,101589.80
2018-06-02T23:36:21.874Z,101593.69
2018-06-02T23:38:51.207Z,101593.50
2018-06-02T23:41:20.512Z,101594.03
2018-06-02T23:43:49.843Z,101597.64
2018-06-02T23:46:19.136Z,101598.77
2018-06-02T23:48:48.403Z,101596.23
2018-06-02T23:51:17.689Z,101595.63
2018-06-02T23:53:46.967Z,101600.28
2018-06-02T23:56:16.519Z,101597.11
2018-06-02T23:58:46.070Z,101597.33
